Terminal Aerodrome Forecast
Issued by NWS

Home | Current Version | Previous Version | Text Only | Print | Product List | Glossary On
Versions: 1 2 3 4 5 6 7 8 9 10 11 12
000
FTUS43 KAPX 050249 AAA
TAFTVC
TAF AMD
KTVC 050249Z 0503/0524 00000KT P6SM SCT250
     FM050500 00000KT 6SM BR SCT250
      TEMPO 0507/0511 3SM BR
     FM051300 21006KT P6SM FEW025 SCT250
     FM051800 28005KT P6SM FEW050 SCT250=

USA.gov is the U.S. government's official web portal to all federal, state and local government web resources and services.